Latest Weather Observations for Cloncurry

IDQ60801

Issued at 8:02 pm EST Tuesday 1 September 2015 (issued every 30 minutes, with the page automatically refreshed every 10 minutes)

About weather observations | Map of weather stations | Latest weather observations for QLD | Other Formats
Station Details ID: 029141 Name: CLONCURRY AIRPORT Lat: -20.67 Lon: 140.50 Height: 186.0 m
Data from the previous 72 hours. | See also: Recent months at Cloncurry
Date/Time
EST
Temp
°C
App
Temp
°C
Dew
Point
Rel
Hum
%
Delta-T
°C
Wind Press
QNH
hPa
Press
MSL
hPa
Rain
since 9 am
mm
Dir
 
Spd
km/h
Gust
km/h
Spd
kts
Gust
kts
01/08:00pm 24.7 20.8 -4.6 14 12.5 N 7 7 4 4 1012.2 1011.3 0.0
01/07:30pm 26.0 22.3 -4.5 13 13.1 N 6 7 3 4 1011.9 1011.0 0.0
01/07:00pm 27.5 23.9 -3.3 13 13.7 NW 6 7 3 4 1011.5 1010.6 0.0
01/06:30pm 30.0 26.4 -3.6 11 15.2 NW 6 7 3 4 1011.2 1010.3 0.0
01/06:00pm 31.2 27.1 -2.7 11 15.7 NNW 9 13 5 7 1010.9 1010.0 0.0
01/05:30pm 31.9 28.1 -3.5 10 16.3 NNW 7 11 4 6 1010.8 1009.9 0.0
01/05:00pm 31.4 27.2 -3.8 10 16.1 NNE 9 17 5 9 1010.7 1009.8 0.0
01/04:30pm 32.3 28.2 -3.2 10 16.5 NNE 9 17 5 9 1010.7 1009.8 0.0
01/04:00pm 31.9 27.0 -3.5 10 16.3 N 13 20 7 11 1011.0 1010.1 0.0
01/03:30pm 31.4 26.5 -3.8 10 16.0 N 13 24 7 13 1011.4 1010.5 0.0
01/03:00pm 30.8 25.9 -3.0 11 15.6 NNE 13 20 7 11 1011.9 1011.0 0.0
01/02:30pm 31.2 26.0 -2.7 11 15.7 N 15 22 8 12 1012.5 1011.6 0.0
01/02:00pm 30.3 25.8 -3.4 11 15.3 N 11 19 6 10 1013.0 1012.1 0.0
01/01:30pm 29.6 23.9 -3.9 11 15.0 NNE 17 22 9 12 1013.8 1012.8 0.0
01/01:00pm 29.5 24.5 -4.0 11 15.0 NNE 13 22 7 12 1014.2 1013.2 0.0
01/12:30pm 28.6 23.2 -4.7 11 14.6 NNE 15 26 8 14 1015.0 1014.1 0.0
01/12:00pm 27.6 21.8 -4.3 12 14.0 ENE 17 22 9 12 1015.6 1014.7 0.0
01/11:30am 27.5 21.9 -3.3 13 13.7 ENE 17 26 9 14 1016.2 1015.3 0.0
01/11:00am 26.3 20.1 -3.3 14 13.0 ENE 20 30 11 16 1016.7 1015.8 0.0
01/10:30am 25.2 18.9 -4.2 14 12.6 E 20 26 11 14 1017.2 1016.3 0.0
01/10:00am 24.8 17.8 -3.6 15 12.3 E 24 30 13 16 1017.3 1016.4 0.0
01/09:30am 23.5 16.4 -4.6 15 11.8 E 24 30 13 16 1017.3 1016.7 0.0
01/09:00am 22.7 15.6 -4.4 16 11.3 E 24 32 13 17 1017.2 1016.6 0.0
01/08:30am 21.9 14.8 -4.2 17 10.9 E 24 30 13 16 1016.8 1016.2 0.0
01/08:00am 18.3 14.8 -3.2 23 8.8 S 6 9 3 5 1016.7 1016.1 0.0
01/07:30am 14.9 11.2 -4.4 26 7.5 S 6 7 3 4 1016.5 1015.9 0.0
01/07:00am 13.5 9.1 -5.6 26 7.1 SSW 9 11 5 6 1016.2 1015.6 0.0
01/06:30am 14.0 11.0 -5.2 26 7.2 S 2 7 1 4 1016.1 1015.5 0.0
01/06:00am 15.1 12.5 -4.8 25 7.6 CALM 0 0 0 0 1015.6 1015.0 0.0
01/05:30am 15.2 10.5 -4.7 25 7.7 S 11 13 6 7 1015.6 1015.0 0.0
01/05:00am 14.7 10.4 -4.6 26 7.4 S 9 11 5 6 1015.4 1014.8 0.0
01/04:30am 15.3 10.6 -4.6 25 7.7 S 11 11 6 6 1015.4 1014.8 0.0
01/04:00am 14.5 9.8 -5.3 25 7.5 S 11 11 6 6 1015.5 1014.9 0.0
01/03:30am 15.9 11.2 -4.6 24 8.0 S 11 11 6 6 1015.6 1015.0 0.0
01/03:00am 15.9 11.6 -4.6 24 8.0 S 9 11 5 6 1016.1 1015.5 0.0
01/02:30am 16.1 11.0 -5.0 23 8.2 S 13 13 7 7 1016.1 1015.5 0.0
01/02:00am 16.8 11.7 -5.0 22 8.5 SSW 13 15 7 8 1016.1 1015.5 0.0
01/01:30am 17.7 13.4 -4.9 21 8.9 SSE 9 11 5 6 1016.0 1015.4 0.0
01/01:00am 17.5 12.3 -5.7 20 9.0 S 13 13 7 7 1016.3 1015.7 0.0
01/12:30am 17.5 12.7 -5.7 20 9.0 S 11 13 6 7 1016.5 1015.9 0.0
01/12:00am 18.4 14.1 -4.9 20 9.3 S 9 11 5 6 1016.6 1016.0 0.0
 
Date/Time
EST
Temp
°C
App
Temp
°C
Dew
Point
Rel
Hum
%
Delta-T
°C
Wind Press
QNH
hPa
Press
MSL
hPa
Rain
since 9 am
mm
Dir
 
Spd
km/h
Gust
km/h
Spd
kts
Gust
kts
31/11:30pm 18.8 14.9 -4.6 20 9.4 SSE 7 9 4 5 1016.4 1015.8 0.0
31/11:00pm 19.1 14.0 -5.0 19 9.6 SSW 13 15 7 8 1016.4 1015.8 0.0
31/10:30pm 19.8 15.1 -5.2 18 10.0 SSW 11 13 6 7 1016.5 1015.9 0.0
31/10:00pm 20.9 16.7 -4.3 18 10.4 S 9 11 5 6 1016.4 1015.8 0.0
31/09:30pm 20.3 16.4 -6.3 16 10.5 S 6 9 3 5 1016.1 1015.5 0.0
31/09:00pm 21.0 16.3 -5.0 17 10.6 S 11 13 6 7 1015.9 1015.3 0.0
31/08:30pm 20.8 16.3 -6.7 15 10.8 S 9 9 5 5 1015.7 1015.1 0.0
31/08:00pm 23.8 19.9 -6.2 13 12.3 SE 6 7 3 4 1015.2 1014.6 0.0
31/07:30pm 26.0 21.6 -5.6 12 13.3 SE 9 11 5 6 1014.8 1014.2 0.0
31/07:00pm 26.2 22.3 -4.4 13 13.2 S 7 9 4 5 1014.4 1013.8 0.0
31/06:30pm 27.6 23.7 -4.3 12 14.0 SSE 7 9 4 5 1014.2 1013.6 0.0
31/06:00pm 29.0 24.4 -4.4 11 14.8 SE 11 15 6 8 1014.1 1013.5 0.0
31/05:30pm 29.5 23.8 -4.0 11 15.0 S 17 22 9 12 1013.9 1013.3 0.0
31/05:00pm 30.0 25.1 -3.6 11 15.2 SSE 13 22 7 12 1014.0 1013.4 0.0
31/04:30pm 29.4 25.2 -4.1 11 15.0 SSE 9 17 5 9 1014.1 1013.5 0.0
31/04:00pm 29.9 25.0 -3.7 11 15.2 SSW 13 20 7 11 1014.3 1013.7 0.0
31/03:30pm 29.0 24.2 -5.7 10 15.0 SE 11 20 6 11 1014.5 1013.9 0.0
31/03:00pm 29.0 24.6 -5.7 10 15.0 SSW 9 20 5 11 1014.8 1014.2 0.0
31/02:30pm 28.9 23.5 -4.5 11 14.7 ESE 15 22 8 12 1015.1 1014.5 0.0
31/02:00pm 28.5 23.4 -4.8 11 14.6 ESE 13 20 7 11 1015.6 1015.0 0.0
31/01:30pm 28.0 23.8 -4.0 12 14.1 SSE 9 20 5 11 1016.0 1015.4 0.0
31/01:00pm 26.6 21.6 -4.0 13 13.4 SE 13 24 7 13 1016.6 1016.0 0.0
31/12:30pm 26.3 21.8 -3.3 14 13.1 E 11 20 6 11 1017.1 1016.5 0.0
31/12:00pm 25.2 20.3 -3.2 15 12.4 E 13 20 7 11 1017.7 1017.1 0.0
31/11:30am 24.7 19.6 -2.0 17 11.9 ESE 15 22 8 12 1018.4 1017.9 0.0
31/11:00am 24.8 19.1 -1.1 18 11.7 E 19 26 10 14 1018.9 1018.4 0.0
31/10:30am 24.2 18.5 -0.9 19 11.4 E 19 26 10 14 1019.3 1018.7 0.0
31/10:00am 23.8 18.1 -0.5 20 11.0 ESE 19 28 10 15 1019.3 1018.7 0.0
31/09:30am 23.1 17.3 -0.4 21 10.7 ESE 20 24 11 13 1019.0 1018.5 0.0
31/09:00am 20.1 16.1 -2.3 22 9.5 SSE 9 13 5 7 1019.0 1018.5 0.0
31/08:30am 18.2 13.7 -3.2 23 8.8 SSE 11 15 6 8 1019.0 1018.5 0.0
31/08:00am 15.8 11.6 -3.6 26 7.7 S 9 13 5 7 1018.9 1018.4 0.0
31/07:30am 13.7 9.6 -3.1 31 6.6 S 9 9 5 5 1018.6 1018.1 0.0
31/07:00am 12.0 7.4 -3.8 33 6.0 S 11 11 6 6 1018.2 1017.7 0.0
31/06:30am 12.3 7.3 -3.9 32 6.2 S 13 15 7 8 1017.9 1017.4 0.0
31/06:00am 12.5 7.6 -3.7 32 6.2 S 13 15 7 8 1017.5 1016.9 0.0
31/05:30am 13.9 9.4 -3.4 30 6.8 SSE 11 15 6 8 1017.2 1016.6 0.0
31/05:00am 13.9 9.0 -3.8 29 6.9 S 13 13 7 7 1017.1 1016.5 0.0
31/04:30am 14.6 9.7 -3.7 28 7.2 SSW 13 13 7 7 1017.0 1016.4 0.0
31/04:00am 14.6 9.7 -3.7 28 7.2 S 13 15 7 8 1017.1 1016.5 0.0
31/03:30am 14.9 9.9 -3.9 27 7.4 S 13 15 7 8 1017.2 1016.6 0.0
31/03:00am 14.0 10.1 -4.2 28 7.0 S 7 11 4 6 1017.4 1016.8 0.0
31/02:30am 14.9 10.4 -3.4 28 7.2 S 11 13 6 7 1017.4 1016.8 0.0
31/02:00am 15.4 10.8 -4.0 26 7.6 S 11 13 6 7 1017.6 1017.0 0.0
31/01:30am 15.4 10.4 -4.0 26 7.6 S 13 13 7 7 1017.8 1017.2 0.0
31/01:00am 16.0 11.0 -4.0 25 7.9 S 13 15 7 8 1018.1 1017.6 0.0
31/12:30am 16.5 11.6 -3.6 25 8.1 S 13 15 7 8 1018.3 1017.8 0.0
31/12:00am 16.7 11.4 -3.9 24 8.2 S 15 15 8 8 1018.5 1018.0 0.0
 
Date/Time
EST
Temp
°C
App
Temp
°C
Dew
Point
Rel
Hum
%
Delta-T
°C
Wind Press
QNH
hPa
Press
MSL
hPa
Rain
since 9 am
mm
Dir
 
Spd
km/h
Gust
km/h
Spd
kts
Gust
kts
30/11:30pm 18.6 14.5 -2.9 23 8.9 S 9 13 5 7 1018.4 1017.9 0.0
30/11:00pm 18.9 13.9 -3.9 21 9.3 S 13 15 7 8 1018.4 1017.9 0.0
30/10:30pm 19.2 14.7 -3.0 22 9.3 S 11 13 6 7 1018.3 1017.8 0.0
30/10:00pm 19.0 14.4 -3.8 21 9.3 S 11 11 6 6 1018.1 1017.6 0.0
30/09:30pm 21.8 17.6 -3.5 18 10.7 SE 9 11 5 6 1018.0 1017.5 0.0
30/09:00pm 21.9 17.7 -3.5 18 10.7 ESE 9 11 5 6 1017.8 1017.2 0.0
30/08:30pm 21.1 17.5 -3.4 19 10.3 ESE 6 9 3 5 1017.4 1016.8 0.0
30/08:00pm 23.0 19.0 -2.6 18 11.1 S 9 9 5 5 1016.9 1016.3 0.0
30/07:30pm 23.8 18.9 -3.5 16 11.8 SSW 13 13 7 7 1016.5 1015.9 0.0
30/07:00pm 24.7 19.8 -3.6 15 12.2 SSW 13 15 7 8 1016.2 1015.6 0.0
30/06:30pm 26.8 21.1 -3.9 13 13.5 S 17 22 9 12 1015.8 1015.2 0.0
30/06:00pm 28.2 22.5 -3.9 12 14.2 S 17 22 9 12 1015.4 1014.8 0.0
30/05:30pm 28.8 22.8 -3.4 12 14.5 S 19 26 10 14 1015.4 1014.8 0.0
30/05:00pm 29.6 23.6 -2.8 12 14.8 SSW 19 26 10 14 1015.2 1014.6 0.0
30/04:30pm 29.5 24.3 -2.9 12 14.8 S 15 28 8 15 1015.2 1014.6 0.0
30/04:00pm 29.5 22.6 -2.9 12 14.8 S 24 33 13 18 1015.3 1014.7 0.0
30/03:30pm 29.4 23.4 -1.9 13 14.5 S 20 28 11 15 1015.5 1014.9 0.0
30/03:00pm 28.9 23.8 -2.3 13 14.3 SSW 15 26 8 14 1015.9 1015.3 0.0
30/02:30pm 28.5 22.7 -1.6 14 13.9 SSE 19 32 10 17 1016.4 1015.8 0.0
30/02:00pm 27.6 21.9 -0.5 16 13.2 SSE 19 30 10 16 1016.9 1016.3 0.0
30/01:30pm 28.4 24.1 1.0 17 13.3 ESE 13 20 7 11 1017.5 1016.9 0.0
30/01:00pm 27.0 21.6 1.4 19 12.3 SE 19 33 10 18 1018.0 1017.5 0.0
30/12:30pm 27.0 22.4 1.4 19 12.4 SSE 15 26 8 14 1018.5 1018.0 0.0
30/12:00pm 25.4 20.0 1.5 21 11.4 ESE 19 30 10 16 1019.3 1018.7 0.0
30/11:30am 25.5 20.3 2.2 22 11.3 ESE 19 30 10 16 1019.8 1019.2 0.0
30/11:00am 25.2 19.7 2.0 22 11.2 SE 20 28 11 15 1020.4 1019.8 0.0
30/10:30am 24.4 19.1 1.9 23 10.8 SE 19 30 10 16 1020.5 1019.9 0.0
30/10:00am 24.1 19.0 2.9 25 10.3 ESE 19 30 10 16 1020.5 1019.9 0.0
30/09:30am 23.1 17.9 3.6 28 9.5 ESE 20 28 11 15 1020.5 1019.9 0.0
30/09:00am 21.5 16.6 2.2 28 9.1 SSE 17 22 9 12 1020.5 1019.9 0.0
30/08:30am 20.6 16.0 1.5 28 8.8 SSE 15 20 8 11 1020.4 1019.8 0.0
30/08:00am 19.2 15.3 1.2 30 8.1 S 11 15 6 8 1020.3 1019.7 0.0
30/07:30am 18.1 13.4 0.7 31 7.7 S 15 19 8 10 1019.8 1019.2 0.0
30/07:00am 17.0 12.6 0.6 33 7.2 S 13 15 7 8 1019.6 1019.0 0.0
30/06:30am 16.9 12.2 1.0 34 7.0 S 15 17 8 9 1019.0 1018.5 0.0
30/06:00am 17.4 13.1 1.0 33 7.3 S 13 17 7 9 1018.7 1018.2 0.0
30/05:30am 16.7 12.3 0.4 33 7.1 S 13 15 7 8 1018.4 1017.9 0.0
30/05:00am 18.1 13.4 0.7 31 7.7 S 15 17 8 9 1018.2 1017.7 0.0
30/04:30am 18.7 14.0 0.8 30 8.0 S 15 17 8 9 1018.1 1017.6 0.0
30/04:00am 19.2 14.5 0.8 29 8.3 SSW 15 17 8 9 1018.1 1017.6 0.0
30/03:30am 19.6 15.2 0.6 28 8.5 SSW 13 15 7 8 1018.1 1017.6 0.0
30/03:00am 20.8 16.9 1.1 27 9.0 S 11 15 6 8 1018.0 1017.5 0.0
30/02:30am 21.4 16.0 1.1 26 9.4 S 19 24 10 13 1017.8 1017.2 0.0
30/02:00am 22.0 17.4 1.6 26 9.5 S 15 19 8 10 1018.2 1017.7 0.0
30/01:30am 22.5 17.6 2.1 26 9.7 S 17 24 9 13 1018.3 1017.8 0.0
30/01:00am 22.7 17.5 2.2 26 9.7 S 19 24 10 13 1018.2 1017.7 0.0
30/12:30am 23.2 17.0 2.1 25 10.1 S 24 32 13 17 1018.2 1017.7 0.0
30/12:00am 23.4 17.1 1.7 24 10.3 S 24 32 13 17 1018.0 1017.5 0.0
 
Date/Time
EST
Temp
°C
App
Temp
°C
Dew
Point
Rel
Hum
%
Delta-T
°C
Wind Press
QNH
hPa
Press
MSL
hPa
Rain
since 9 am
mm
Dir
 
Spd
km/h
Gust
km/h
Spd
kts
Gust
kts
29/11:30pm 23.6 17.0 1.9 24 10.3 S 26 32 14 17 1017.6 1017.0 0.0
29/11:00pm 24.0 17.4 2.2 24 10.4 S 26 33 14 18 1017.6 1017.0 0.0
29/10:30pm 24.2 18.0 2.4 24 10.5 SSW 24 35 13 19 1017.8 1017.2 0.0
29/10:00pm 24.4 19.0 2.5 24 10.6 SSW 20 28 11 15 1017.9 1017.4 0.0
29/09:30pm 24.7 20.0 3.4 25 10.5 S 17 20 9 11 1017.9 1017.4 0.0
29/09:00pm 25.0 20.5 4.2 26 10.4 S 17 24 9 13 1017.7 1017.1 0.0
29/08:30pm 25.3 21.5 3.9 25 10.7 S 13 17 7 9 1017.4 1016.8 0.0

Other Formats:

Comma delimited format used in spreadsheet applications
http://www.bom.gov.au/fwo/IDQ60801/IDQ60801.94335.axf

JavaScript Object Notation format (JSON) in row-major order
http://www.bom.gov.au/fwo/IDQ60801/IDQ60801.94335.json